createdAt,value
2022-10-05T00:01:29.010Z,13.00
2022-10-05T00:04:15.618Z,13.00
2022-10-05T00:06:43.979Z,12.90
2022-10-05T00:09:13.179Z,12.90
2022-10-05T00:11:39.934Z,12.90
2022-10-05T00:14:26.930Z,12.90
2022-10-05T00:16:53.680Z,12.90
2022-10-05T00:19:23.588Z,12.90
2022-10-05T00:21:50.353Z,12.90
2022-10-05T00:24:19.315Z,12.90
2022-10-05T00:26:46.417Z,12.80
2022-10-05T00:29:23.110Z,12.80
2022-10-05T00:31:50.726Z,12.90
2022-10-05T00:34:17.832Z,12.90
2022-10-05T00:36:45.635Z,12.90
2022-10-05T00:39:12.658Z,12.90
2022-10-05T00:41:58.244Z,12.90
2022-10-05T00:44:40.985Z,12.80
2022-10-05T00:47:14.683Z,12.80
2022-10-05T00:50:07.626Z,12.80
2022-10-05T00:52:37.188Z,12.80
2022-10-05T00:55:10.000Z,12.80
2022-10-05T00:57:55.479Z,12.80
2022-10-05T01:00:24.707Z,12.80
2022-10-05T01:02:59.446Z,12.80
2022-10-05T01:05:44.948Z,12.70
2022-10-05T01:08:17.615Z,12.70
2022-10-05T01:11:08.367Z,12.70
2022-10-05T01:13:35.084Z,12.70
2022-10-05T01:16:04.226Z,12.60
2022-10-05T01:18:54.315Z,12.60
2022-10-05T01:21:22.717Z,12.60
2022-10-05T01:23:59.277Z,12.60
2022-10-05T01:26:25.993Z,12.60
2022-10-05T01:28:56.885Z,12.60
2022-10-05T01:31:32.838Z,12.60
2022-10-05T01:34:11.469Z,12.60
2022-10-05T01:36:38.509Z,12.60
2022-10-05T01:39:24.081Z,12.60
2022-10-05T01:41:57.050Z,12.50
2022-10-05T01:44:31.112Z,12.50
2022-10-05T01:47:06.659Z,12.50
2022-10-05T01:49:47.804Z,12.50
2022-10-05T01:52:14.518Z,12.50
2022-10-05T01:54:51.759Z,12.50
2022-10-05T01:57:21.495Z,12.40
2022-10-05T02:00:04.102Z,12.40
2022-10-05T02:02:49.011Z,12.50
2022-10-05T02:05:24.830Z,12.40
2022-10-05T02:07:57.685Z,12.50
2022-10-05T02:10:30.990Z,12.40
2022-10-05T02:13:00.882Z,12.40
2022-10-05T02:15:45.272Z,12.40
2022-10-05T02:18:24.063Z,12.40
2022-10-05T02:20:52.887Z,12.30
2022-10-05T02:23:22.299Z,12.30
2022-10-05T02:25:51.643Z,12.30
2022-10-05T02:28:29.021Z,12.30
2022-10-05T02:31:15.482Z,12.30
2022-10-05T02:33:42.404Z,12.40
2022-10-05T02:36:15.993Z,12.40
2022-10-05T02:39:04.472Z,12.50
2022-10-05T02:41:35.323Z,12.50
2022-10-05T02:44:18.463Z,12.50
2022-10-05T02:46:58.591Z,12.50
2022-10-05T02:49:49.806Z,12.50
2022-10-05T02:52:16.539Z,12.50
2022-10-05T02:54:50.076Z,12.60
2022-10-05T02:57:46.457Z,12.60
2022-10-05T03:00:17.686Z,12.60
2022-10-05T03:02:55.349Z,12.60
2022-10-05T03:05:23.899Z,12.60
2022-10-05T03:07:55.881Z,12.70
2022-10-05T03:10:26.913Z,12.70
2022-10-05T03:13:00.610Z,12.70
2022-10-05T03:15:28.103Z,12.80
2022-10-05T03:18:03.995Z,12.80
2022-10-05T03:20:42.791Z,12.80
2022-10-05T03:23:19.832Z,12.80
2022-10-05T03:25:52.750Z,12.80
2022-10-05T03:28:24.617Z,12.80
2022-10-05T03:31:01.598Z,12.80
2022-10-05T03:33:43.867Z,12.80
2022-10-05T03:36:38.334Z,12.80
2022-10-05T03:39:27.912Z,12.80
2022-10-05T03:42:05.980Z,12.90
2022-10-05T03:44:35.817Z,12.90
2022-10-05T03:47:21.442Z,12.90
2022-10-05T03:49:48.549Z,12.80
2022-10-05T03:52:23.221Z,12.80
2022-10-05T03:54:54.150Z,12.80
2022-10-05T03:57:23.287Z,12.80
2022-10-05T03:59:50.832Z,12.90
2022-10-05T04:02:40.338Z,12.90
2022-10-05T04:05:07.317Z,12.90
2022-10-05T04:07:38.636Z,12.80
2022-10-05T04:10:10.003Z,12.90
2022-10-05T04:12:38.871Z,12.90
2022-10-05T04:15:22.695Z,12.90
2022-10-05T04:17:53.102Z,12.90
2022-10-05T04:20:24.850Z,12.90
2022-10-05T04:23:01.425Z,13.00
2022-10-05T04:25:35.081Z,13.00
2022-10-05T04:28:04.688Z,13.00
2022-10-05T04:30:32.753Z,13.00
2022-10-05T04:33:00.492Z,13.00
2022-10-05T04:35:48.569Z,13.00
2022-10-05T04:38:33.915Z,13.00
2022-10-05T04:41:07.403Z,13.00
2022-10-05T04:43:46.568Z,13.00
2022-10-05T04:46:32.822Z,13.10
2022-10-05T04:49:07.791Z,13.10
2022-10-05T04:51:34.577Z,13.10
2022-10-05T04:54:10.799Z,13.10
2022-10-05T04:56:40.726Z,13.10
2022-10-05T04:59:14.276Z,13.20
2022-10-05T05:01:47.088Z,13.20
2022-10-05T05:04:33.322Z,13.20
2022-10-05T05:07:22.897Z,13.20
2022-10-05T05:10:08.325Z,13.30
2022-10-05T05:12:48.065Z,13.30
2022-10-05T05:15:18.578Z,13.30
2022-10-05T05:18:03.901Z,13.30
2022-10-05T05:20:41.740Z,13.30
2022-10-05T05:23:14.510Z,13.30
2022-10-05T05:25:41.237Z,13.30
2022-10-05T05:28:20.857Z,13.30
2022-10-05T05:30:56.614Z,13.30
2022-10-05T05:33:30.196Z,13.30
2022-10-05T05:36:19.505Z,13.30
2022-10-05T05:39:13.238Z,13.30
2022-10-05T05:41:51.857Z,13.30
2022-10-05T05:44:23.200Z,13.40
2022-10-05T05:47:17.392Z,13.40
2022-10-05T05:49:54.398Z,13.40
2022-10-05T05:52:24.314Z,13.40
2022-10-05T05:55:04.709Z,13.40
2022-10-05T05:57:41.017Z,13.40
2022-10-05T06:00:14.140Z,13.40
2022-10-05T06:03:00.679Z,13.40
2022-10-05T06:05:32.340Z,13.40
2022-10-05T06:08:06.800Z,13.40
2022-10-05T06:10:43.364Z,13.50
2022-10-05T06:13:20.612Z,13.50
2022-10-05T06:15:54.783Z,13.50
2022-10-05T06:18:22.575Z,13.50
2022-10-05T06:20:57.663Z,13.50
2022-10-05T06:23:27.547Z,13.60
2022-10-05T06:25:54.372Z,13.60
2022-10-05T06:28:24.764Z,13.60
2022-10-05T06:31:04.218Z,13.60
2022-10-05T06:33:36.642Z,13.60
2022-10-05T06:36:12.886Z,13.60
2022-10-05T06:38:39.704Z,13.70
2022-10-05T06:41:20.499Z,13.60
2022-10-05T06:43:52.017Z,13.60
2022-10-05T06:46:45.719Z,13.70
2022-10-05T06:50:04.097Z,13.70
2022-10-05T06:52:52.360Z,13.70
2022-10-05T06:55:22.427Z,13.60
2022-10-05T06:58:13.241Z,13.70
2022-10-05T07:00:49.215Z,13.70
2022-10-05T07:03:22.212Z,13.70
2022-10-05T07:05:49.153Z,13.70
2022-10-05T07:08:22.534Z,13.70
2022-10-05T07:11:13.767Z,13.70
2022-10-05T07:13:40.607Z,13.70
2022-10-05T07:16:07.758Z,13.70
2022-10-05T07:18:55.535Z,13.70
2022-10-05T07:21:22.411Z,13.70
2022-10-05T07:24:07.742Z,13.70
2022-10-05T07:26:58.167Z,13.70
2022-10-05T07:29:40.764Z,13.70
2022-10-05T07:32:28.282Z,13.70
2022-10-05T07:34:58.102Z,13.70
2022-10-05T07:37:55.613Z,13.70
2022-10-05T07:40:33.094Z,13.70
2022-10-05T07:42:59.978Z,13.70
2022-10-05T07:45:44.476Z,13.70
2022-10-05T07:48:33.147Z,13.70
2022-10-05T07:51:36.878Z,13.70
2022-10-05T07:54:06.461Z,13.70
2022-10-05T07:56:36.690Z,13.70
2022-10-05T07:59:07.790Z,13.70
2022-10-05T08:01:37.111Z,13.80
2022-10-05T08:04:14.180Z,13.80
2022-10-05T08:06:44.761Z,13.90
2022-10-05T08:09:14.738Z,13.90
2022-10-05T08:12:00.571Z,13.90
2022-10-05T08:14:42.660Z,13.90
2022-10-05T08:17:13.880Z,14.00
2022-10-05T08:19:46.894Z,14.00
2022-10-05T08:22:19.458Z,14.00
2022-10-05T08:24:51.765Z,14.00
2022-10-05T08:27:30.719Z,14.00
2022-10-05T08:30:05.809Z,14.00
2022-10-05T08:32:51.514Z,14.00
2022-10-05T08:35:27.772Z,13.90
2022-10-05T08:37:55.174Z,14.00
2022-10-05T08:40:33.815Z,14.00
2022-10-05T08:43:19.263Z,14.10
2022-10-05T08:46:04.833Z,14.10
2022-10-05T08:48:40.598Z,14.10
2022-10-05T08:51:22.654Z,14.10
2022-10-05T08:53:58.201Z,14.20
2022-10-05T08:56:33.904Z,14.20
2022-10-05T08:59:00.595Z,14.20
2022-10-05T09:01:42.852Z,14.20
2022-10-05T09:04:15.545Z,14.30
2022-10-05T09:06:45.033Z,14.30
2022-10-05T09:09:20.718Z,14.40
2022-10-05T09:11:50.556Z,14.40
2022-10-05T09:14:24.629Z,14.40
2022-10-05T09:16:58.677Z,14.40
2022-10-05T09:19:37.505Z,14.40
2022-10-05T09:22:22.760Z,14.40
2022-10-05T09:24:57.198Z,14.50
2022-10-05T09:27:32.908Z,14.60
2022-10-05T09:30:05.760Z,14.60
2022-10-05T09:32:51.673Z,14.70
2022-10-05T09:35:36.923Z,14.70
2022-10-05T09:38:20.879Z,14.80
2022-10-05T09:41:06.179Z,14.90
2022-10-05T09:43:32.916Z,15.00
2022-10-05T09:45:59.703Z,15.00
2022-10-05T09:48:45.035Z,15.00
2022-10-05T09:51:30.363Z,15.00
2022-10-05T09:54:22.073Z,15.00
2022-10-05T09:56:49.203Z,15.00
2022-10-05T09:59:23.571Z,15.00
2022-10-05T10:02:09.834Z,15.00
2022-10-05T10:04:39.525Z,15.00
2022-10-05T10:07:16.270Z,15.00
2022-10-05T10:10:09.445Z,15.10
2022-10-05T10:12:54.880Z,15.10
2022-10-05T10:15:24.535Z,15.20
2022-10-05T10:18:03.260Z,15.40
2022-10-05T10:20:32.825Z,15.40
2022-10-05T10:22:59.589Z,15.50
2022-10-05T10:25:32.332Z,15.60
2022-10-05T10:28:13.214Z,15.70
2022-10-05T10:30:55.494Z,15.90
2022-10-05T10:33:40.898Z,16.00
2022-10-05T10:36:07.641Z,15.90
2022-10-05T10:38:47.202Z,15.90
2022-10-05T10:41:37.236Z,15.80
2022-10-05T10:44:22.715Z,15.80
2022-10-05T10:47:08.235Z,15.80
2022-10-05T10:49:34.954Z,15.70
2022-10-05T10:52:06.106Z,15.70
2022-10-05T10:54:33.008Z,15.70
2022-10-05T10:57:05.240Z,15.80
2022-10-05T11:00:01.665Z,15.80
2022-10-05T11:02:37.282Z,15.90
2022-10-05T11:05:06.874Z,16.00
2022-10-05T11:07:52.208Z,16.00
2022-10-05T11:10:34.015Z,16.00
2022-10-05T11:13:10.018Z,15.90
2022-10-05T11:15:45.780Z,15.90
2022-10-05T11:18:15.698Z,15.90
2022-10-05T11:20:56.089Z,15.80
2022-10-05T11:23:40.968Z,15.80
2022-10-05T11:26:19.713Z,15.80
2022-10-05T11:28:52.569Z,15.80
2022-10-05T11:31:39.067Z,15.90
2022-10-05T11:34:09.522Z,15.90
2022-10-05T11:36:42.415Z,15.80
2022-10-05T11:39:28.764Z,15.90
2022-10-05T11:42:01.668Z,15.90
2022-10-05T11:44:38.736Z,15.90
2022-10-05T11:47:11.205Z,15.90
2022-10-05T11:49:37.933Z,15.80
2022-10-05T11:52:24.908Z,15.80
2022-10-05T11:55:10.495Z,15.90
2022-10-05T11:57:41.432Z,15.90
2022-10-05T12:00:16.925Z,15.90
2022-10-05T12:03:02.100Z,15.90
2022-10-05T12:05:48.518Z,15.80
2022-10-05T12:08:33.692Z,15.90
2022-10-05T12:11:03.625Z,16.00
2022-10-05T12:13:59.599Z,16.00
2022-10-05T12:16:33.207Z,16.10
2022-10-05T12:19:05.906Z,16.20
2022-10-05T12:21:44.760Z,16.30
2022-10-05T12:24:22.240Z,16.30
2022-10-05T12:26:58.103Z,16.30
2022-10-05T12:29:34.953Z,16.30
2022-10-05T12:32:06.122Z,16.20
2022-10-05T12:34:39.036Z,16.10
2022-10-05T12:37:24.552Z,16.10
2022-10-05T12:39:56.567Z,16.10
2022-10-05T12:42:41.891Z,16.10
2022-10-05T12:45:18.118Z,16.20
2022-10-05T12:47:54.831Z,16.20
2022-10-05T12:50:34.642Z,16.30
2022-10-05T12:53:10.372Z,16.20
2022-10-05T12:55:57.633Z,16.20
2022-10-05T12:58:39.042Z,16.20
2022-10-05T13:01:26.099Z,16.20
2022-10-05T13:03:57.453Z,16.20
2022-10-05T13:06:40.447Z,16.20
2022-10-05T13:09:10.231Z,16.20
2022-10-05T13:11:46.764Z,16.30
2022-10-05T13:14:13.501Z,16.20
2022-10-05T13:16:45.757Z,16.30
2022-10-05T13:19:15.425Z,16.40
2022-10-05T13:22:00.331Z,16.40
2022-10-05T13:24:32.936Z,16.50
2022-10-05T13:27:05.635Z,16.50
2022-10-05T13:29:37.503Z,16.50
2022-10-05T13:32:16.415Z,16.50
2022-10-05T13:34:49.115Z,16.50
2022-10-05T13:37:20.972Z,16.50
2022-10-05T13:40:06.616Z,16.40
2022-10-05T13:42:40.865Z,16.40
2022-10-05T13:45:30.793Z,16.40
2022-10-05T13:48:19.729Z,16.40
2022-10-05T13:50:55.319Z,16.30
2022-10-05T13:53:34.054Z,16.30
2022-10-05T13:56:07.261Z,16.30
2022-10-05T13:58:34.051Z,16.20
2022-10-05T14:01:02.261Z,16.20
2022-10-05T14:03:34.888Z,16.20
2022-10-05T14:06:12.681Z,16.20
2022-10-05T14:09:05.890Z,16.20
2022-10-05T14:11:34.848Z,16.20
2022-10-05T14:14:15.258Z,16.10
2022-10-05T14:16:52.605Z,16.10
2022-10-05T14:19:54.954Z,16.10
2022-10-05T14:22:22.700Z,16.10
2022-10-05T14:25:07.542Z,16.00
2022-10-05T14:27:36.414Z,15.90
2022-10-05T14:30:18.325Z,15.90
2022-10-05T14:32:56.155Z,15.90
2022-10-05T14:35:25.596Z,15.80
2022-10-05T14:37:57.110Z,15.90
2022-10-05T14:40:30.043Z,15.80
2022-10-05T14:42:58.105Z,15.80
2022-10-05T14:45:26.116Z,15.80
2022-10-05T14:48:06.190Z,15.80
2022-10-05T14:50:33.125Z,15.80
2022-10-05T14:52:59.823Z,15.90
2022-10-05T14:55:43.786Z,16.00
2022-10-05T14:58:31.503Z,16.00
2022-10-05T15:01:16.812Z,16.00
2022-10-05T15:03:43.587Z,16.00
2022-10-05T15:06:15.947Z,16.00
2022-10-05T15:08:45.834Z,16.00
2022-10-05T15:11:17.131Z,15.90
2022-10-05T15:13:45.143Z,15.90
2022-10-05T15:16:15.191Z,15.80
2022-10-05T15:18:57.316Z,15.80
2022-10-05T15:21:42.247Z,15.70
2022-10-05T15:24:13.288Z,15.70
2022-10-05T15:26:40.026Z,15.60
2022-10-05T15:29:18.789Z,15.50
2022-10-05T15:31:45.482Z,15.50
2022-10-05T15:34:30.159Z,15.50
2022-10-05T15:37:01.528Z,15.50
2022-10-05T15:39:40.685Z,15.50
2022-10-05T15:42:11.206Z,15.40
2022-10-05T15:44:47.800Z,15.30
2022-10-05T15:47:20.859Z,15.30
2022-10-05T15:49:57.240Z,15.20
2022-10-05T15:52:29.446Z,15.20
2022-10-05T15:55:02.222Z,15.10
2022-10-05T15:58:04.807Z,15.10
2022-10-05T16:00:33.781Z,15.10
2022-10-05T16:03:12.821Z,15.00
2022-10-05T16:06:04.341Z,15.00
2022-10-05T16:08:53.997Z,15.00
2022-10-05T16:11:29.874Z,15.00
2022-10-05T16:14:14.069Z,14.90
2022-10-05T16:17:01.127Z,14.90
2022-10-05T16:19:31.000Z,14.90
2022-10-05T16:22:15.295Z,14.90
2022-10-05T16:24:42.515Z,14.90
2022-10-05T16:27:13.813Z,14.80
2022-10-05T16:29:43.739Z,14.80
2022-10-05T16:32:10.475Z,14.80
2022-10-05T16:35:16.792Z,14.80
2022-10-05T16:37:52.670Z,14.70
2022-10-05T16:40:22.214Z,14.70
2022-10-05T16:43:07.216Z,14.70
2022-10-05T16:45:44.717Z,14.70
2022-10-05T16:48:27.272Z,14.70
2022-10-05T16:51:00.097Z,14.70
2022-10-05T16:53:44.126Z,14.70
2022-10-05T16:56:13.557Z,14.70
2022-10-05T16:58:40.319Z,14.70
2022-10-05T17:01:07.071Z,14.70
2022-10-05T17:03:42.981Z,14.70
2022-10-05T17:06:15.879Z,14.60
2022-10-05T17:08:58.704Z,14.60
2022-10-05T17:11:34.587Z,14.60
2022-10-05T17:14:15.118Z,14.70
2022-10-05T17:16:41.821Z,14.60
2022-10-05T17:19:23.636Z,14.60
2022-10-05T17:21:58.853Z,14.60
2022-10-05T17:24:28.661Z,14.60
2022-10-05T17:27:02.500Z,14.60
2022-10-05T17:29:52.647Z,14.60
2022-10-05T17:32:19.414Z,14.60
2022-10-05T17:35:01.110Z,14.50
2022-10-05T17:37:27.819Z,14.50
2022-10-05T17:39:55.681Z,14.50
2022-10-05T17:42:32.893Z,14.40
2022-10-05T17:45:02.581Z,14.40
2022-10-05T17:47:47.796Z,14.30
2022-10-05T17:50:33.146Z,14.30
2022-10-05T17:53:51.224Z,14.20
2022-10-05T17:56:18.537Z,14.20
2022-10-05T17:58:55.002Z,14.20
2022-10-05T18:01:26.960Z,14.20
2022-10-05T18:03:53.741Z,14.20
2022-10-05T18:06:26.474Z,14.10
2022-10-05T18:09:11.591Z,14.10
2022-10-05T18:11:40.264Z,14.10
2022-10-05T18:14:19.767Z,14.10
2022-10-05T18:17:02.837Z,14.10
2022-10-05T18:19:31.417Z,14.10
2022-10-05T18:22:04.116Z,14.10
2022-10-05T18:24:37.687Z,14.10
2022-10-05T18:27:15.998Z,14.10
2022-10-05T18:30:01.304Z,14.10
2022-10-05T18:32:34.794Z,14.10
2022-10-05T18:35:06.878Z,14.10
2022-10-05T18:37:52.384Z,14.10
2022-10-05T18:40:30.115Z,14.10
2022-10-05T18:43:17.221Z,14.10
2022-10-05T18:45:57.694Z,14.20
2022-10-05T18:48:24.797Z,14.20
2022-10-05T18:51:10.524Z,14.20
2022-10-05T18:53:46.199Z,14.20
2022-10-05T18:56:16.003Z,14.30
2022-10-05T18:58:42.875Z,14.30
2022-10-05T19:01:13.379Z,14.30
2022-10-05T19:03:49.584Z,14.30
2022-10-05T19:06:26.446Z,14.40
2022-10-05T19:09:11.772Z,14.40
2022-10-05T19:11:43.449Z,14.40
2022-10-05T19:14:15.926Z,14.40
2022-10-05T19:16:42.694Z,14.40
2022-10-05T19:19:15.497Z,14.40
2022-10-05T19:21:46.618Z,14.40
2022-10-05T19:24:13.367Z,14.40
2022-10-05T19:26:43.124Z,14.50
2022-10-05T19:29:27.086Z,14.50
2022-10-05T19:31:57.706Z,14.50
2022-10-05T19:34:27.411Z,14.50
2022-10-05T19:37:01.183Z,14.50
2022-10-05T19:39:36.124Z,14.50
2022-10-05T19:42:13.322Z,14.50
2022-10-05T19:44:47.587Z,14.50
2022-10-05T19:47:43.779Z,14.50
2022-10-05T19:50:19.946Z,14.50
2022-10-05T19:52:50.267Z,14.50
2022-10-05T19:55:20.249Z,14.50
2022-10-05T19:57:54.455Z,14.50
2022-10-05T20:00:21.204Z,14.50
2022-10-05T20:02:50.160Z,14.50
2022-10-05T20:05:17.582Z,14.50
2022-10-05T20:07:44.387Z,14.50
2022-10-05T20:10:26.664Z,14.50
2022-10-05T20:12:56.009Z,14.50
2022-10-05T20:15:51.901Z,14.50
2022-10-05T20:19:10.126Z,14.40
2022-10-05T20:21:39.685Z,14.40
2022-10-05T20:24:26.679Z,14.40
2022-10-05T20:27:06.868Z,14.40
2022-10-05T20:29:33.850Z,14.40
2022-10-05T20:32:03.061Z,14.40
2022-10-05T20:34:30.219Z,14.40
2022-10-05T20:36:56.997Z,14.40
2022-10-05T20:39:23.748Z,14.40
2022-10-05T20:41:50.542Z,14.40
2022-10-05T20:44:17.287Z,14.30
2022-10-05T20:46:46.272Z,14.30
2022-10-05T20:49:13.343Z,14.30
2022-10-05T20:51:40.240Z,14.30
2022-10-05T20:54:07.850Z,14.30
2022-10-05T20:56:34.589Z,14.30
2022-10-05T20:59:01.426Z,14.40
2022-10-05T21:01:28.995Z,14.40
2022-10-05T21:03:55.894Z,14.40
2022-10-05T21:06:22.659Z,14.40
2022-10-05T21:08:51.450Z,14.40
2022-10-05T21:11:18.388Z,14.40
2022-10-05T21:13:45.433Z,14.40
2022-10-05T21:16:13.474Z,14.40
2022-10-05T21:18:40.314Z,14.40
2022-10-05T21:21:07.412Z,14.40
2022-10-05T21:23:34.328Z,14.40
2022-10-05T21:26:01.393Z,14.40
2022-10-05T21:28:28.559Z,14.40
2022-10-05T21:30:55.646Z,14.40
2022-10-05T21:33:22.336Z,14.40
2022-10-05T21:35:49.117Z,14.40
2022-10-05T21:38:15.867Z,14.50
2022-10-05T21:40:44.114Z,14.40
2022-10-05T21:43:10.919Z,14.40
2022-10-05T21:45:37.768Z,14.40
2022-10-05T21:48:04.829Z,14.40
2022-10-05T21:50:32.354Z,14.40
2022-10-05T21:53:00.990Z,14.40
2022-10-05T21:55:27.804Z,14.40
2022-10-05T21:57:55.651Z,14.40
2022-10-05T22:00:22.700Z,14.40
2022-10-05T22:02:49.534Z,14.40
2022-10-05T22:05:16.373Z,14.40
2022-10-05T22:07:43.158Z,14.40
2022-10-05T22:10:09.982Z,14.50
2022-10-05T22:12:36.789Z,14.40
2022-10-05T22:15:04.890Z,14.40
2022-10-05T22:17:31.934Z,14.40
2022-10-05T22:19:59.174Z,14.40
2022-10-05T22:22:26.813Z,14.50
2022-10-05T22:24:53.833Z,14.50
2022-10-05T22:27:21.775Z,14.40
2022-10-05T22:29:49.013Z,14.40
2022-10-05T22:32:15.767Z,14.50
2022-10-05T22:34:42.505Z,14.40
2022-10-05T22:37:12.923Z,14.40
2022-10-05T22:39:40.368Z,14.40
2022-10-05T22:42:07.718Z,14.40
2022-10-05T22:44:34.669Z,14.40
2022-10-05T22:47:02.425Z,14.40
2022-10-05T22:49:29.273Z,14.40
2022-10-05T22:51:56.034Z,14.40
2022-10-05T22:54:26.281Z,14.40
2022-10-05T22:56:55.526Z,14.40
2022-10-05T22:59:22.750Z,14.40
2022-10-05T23:01:49.592Z,14.40
2022-10-05T23:04:16.424Z,14.40
2022-10-05T23:06:43.253Z,14.40
2022-10-05T23:09:09.951Z,14.40
2022-10-05T23:11:36.662Z,14.40
2022-10-05T23:14:03.448Z,14.40
2022-10-05T23:16:30.412Z,14.40
2022-10-05T23:18:57.611Z,14.40
2022-10-05T23:21:25.204Z,14.40
2022-10-05T23:23:51.989Z,14.40
2022-10-05T23:26:20.226Z,14.40
2022-10-05T23:28:47.429Z,14.40
2022-10-05T23:31:18.937Z,14.40
2022-10-05T23:33:45.795Z,14.40
2022-10-05T23:36:14.369Z,14.40
2022-10-05T23:38:41.288Z,14.40
2022-10-05T23:41:08.974Z,14.40
2022-10-05T23:43:36.117Z,14.40
2022-10-05T23:46:03.909Z,14.40
2022-10-05T23:48:31.504Z,14.30
2022-10-05T23:50:58.908Z,14.30
2022-10-05T23:53:25.772Z,14.30
2022-10-05T23:55:53.210Z,14.30
2022-10-05T23:58:20.647Z,14.20
